createdAt,value
2016-06-18T00:00:05.114Z,0
2016-06-18T00:01:03.944Z,0
2016-06-18T00:02:04.574Z,0
2016-06-18T00:03:04.639Z,0
2016-06-18T00:04:04.033Z,0
2016-06-18T00:05:04.693Z,0
2016-06-18T00:06:04.119Z,0
2016-06-18T00:07:05.372Z,0
2016-06-18T00:08:04.782Z,0
2016-06-18T00:09:04.238Z,0
2016-06-18T00:10:03.664Z,0
2016-06-18T00:11:04.887Z,0
2016-06-18T00:12:04.952Z,0
2016-06-18T00:13:04.972Z,0
2016-06-18T00:14:05.615Z,0
2016-06-18T00:15:05.056Z,0
2016-06-18T00:16:03.871Z,0
2016-06-18T00:17:03.907Z,0
2016-06-18T00:18:05.144Z,0
2016-06-18T00:19:05.804Z,0
2016-06-18T00:20:05.229Z,0
2016-06-18T00:21:05.874Z,0
2016-06-18T00:22:05.300Z,0
2016-06-18T00:23:06.568Z,0
2016-06-18T00:24:06.010Z,0
2016-06-18T00:25:06.028Z,0
2016-06-18T00:26:06.078Z,0
2016-06-18T00:27:04.895Z,0
2016-06-18T00:28:06.726Z,0
2016-06-18T00:29:06.167Z,0
2016-06-18T00:30:05.608Z,0
2016-06-18T00:31:06.251Z,0
2016-06-18T00:32:06.272Z,0
2016-06-18T00:33:05.712Z,0
2016-06-18T00:34:05.747Z,0
2016-06-18T00:35:05.765Z,0
2016-06-18T00:36:05.254Z,0
2016-06-18T00:37:05.867Z,0
2016-06-18T00:38:04.698Z,0
2016-06-18T00:39:05.311Z,0
2016-06-18T00:40:05.955Z,0
2016-06-18T00:41:06.005Z,0
2016-06-18T00:42:06.634Z,0
2016-06-18T00:43:06.107Z,0
2016-06-18T00:44:06.719Z,0
2016-06-18T00:45:06.113Z,0
2016-06-18T00:46:06.163Z,0
2016-06-18T00:47:05.011Z,0
2016-06-18T00:48:05.639Z,0
2016-06-18T00:49:06.283Z,0
2016-06-18T00:50:07.536Z,0
2016-06-18T00:51:06.352Z,0
2016-06-18T00:52:06.982Z,0
2016-06-18T00:53:06.422Z,0
2016-06-18T00:54:05.285Z,0
2016-06-18T00:55:07.710Z,0
2016-06-18T00:56:05.323Z,0
2016-06-18T00:57:06.577Z,0
2016-06-18T00:58:05.986Z,0
2016-06-18T00:59:07.849Z,0
2016-06-18T01:00:07.290Z,0
2016-06-18T01:01:06.700Z,0
2016-06-18T01:02:06.734Z,0
2016-06-18T01:03:07.409Z,0
2016-06-18T01:04:07.429Z,0
2016-06-18T01:05:07.463Z,0
2016-06-18T01:06:06.280Z,0
2016-06-18T01:07:06.939Z,0
2016-06-18T01:08:07.584Z,0
2016-06-18T01:09:07.602Z,0
2016-06-18T01:10:07.043Z,0
2016-06-18T01:11:07.078Z,0
2016-06-18T01:12:06.488Z,0
2016-06-18T01:13:07.163Z,0
2016-06-18T01:14:07.792Z,0
2016-06-18T01:15:07.217Z,0
2016-06-18T01:16:07.251Z,0
2016-06-18T01:17:07.286Z,0
2016-06-18T01:18:07.336Z,0
2016-06-18T01:19:07.981Z,0
2016-06-18T01:20:08.609Z,0
2016-06-18T01:21:08.050Z,0
2016-06-18T01:22:08.678Z,0
2016-06-18T01:23:08.119Z,0
2016-06-18T01:24:07.546Z,0
2016-06-18T01:25:07.579Z,0
2016-06-18T01:26:07.005Z,0
2016-06-18T01:27:07.634Z,0
2016-06-18T01:28:07.684Z,0
2016-06-18T01:29:07.702Z,0
2016-06-18T01:30:07.160Z,0
2016-06-18T01:31:07.804Z,0
2016-06-18T01:32:07.854Z,0
2016-06-18T01:33:07.889Z,0
2016-06-18T01:34:07.924Z,0
2016-06-18T01:35:07.927Z,0
2016-06-18T01:36:07.976Z,0
2016-06-18T01:37:08.012Z,0
2016-06-18T01:38:07.438Z,0
2016-06-18T01:39:06.878Z,0
2016-06-18T01:40:07.523Z,0
2016-06-18T01:41:08.166Z,0
2016-06-18T01:42:08.202Z,0
2016-06-18T01:43:08.830Z,0
2016-06-18T01:44:08.864Z,0
2016-06-18T01:45:08.899Z,0
2016-06-18T01:46:07.122Z,0
2016-06-18T01:47:08.359Z,0
2016-06-18T01:48:08.628Z,0
2016-06-18T01:49:08.444Z,0
2016-06-18T01:50:09.698Z,0
2016-06-18T01:51:08.528Z,0
2016-06-18T01:52:09.767Z,0
2016-06-18T01:53:07.974Z,0
2016-06-18T01:54:09.246Z,0
2016-06-18T01:55:09.283Z,0
2016-06-18T01:56:08.695Z,0
2016-06-18T01:57:09.358Z,0
2016-06-18T01:58:08.787Z,0
2016-06-18T01:59:08.823Z,0
2016-06-18T02:00:08.249Z,0
2016-06-18T02:01:07.692Z,0
2016-06-18T02:02:08.931Z,0
2016-06-18T02:03:08.357Z,0
2016-06-18T02:04:07.783Z,0
2016-06-18T02:05:09.662Z,0
2016-06-18T02:06:09.697Z,0
2016-06-18T02:07:09.107Z,0
2016-06-18T02:08:09.768Z,0
2016-06-18T02:09:07.975Z,0
2016-06-18T02:10:09.837Z,0
2016-06-18T02:11:09.857Z,0
2016-06-18T02:12:10.517Z,0
2016-06-18T02:13:09.943Z,0
2016-06-18T02:14:09.352Z,0
2016-06-18T02:15:10.028Z,0
2016-06-18T02:16:08.859Z,0
2016-06-18T02:17:10.707Z,0
2016-06-18T02:18:09.522Z,0
2016-06-18T02:19:09.541Z,0
2016-06-18T02:20:10.186Z,0
2016-06-18T02:21:09.611Z,0
2016-06-18T02:22:09.661Z,0
2016-06-18T02:23:09.118Z,0
2016-06-18T02:24:09.137Z,0
2016-06-18T02:25:09.765Z,0
2016-06-18T02:26:10.410Z,0
2016-06-18T02:27:10.444Z,0
2016-06-18T02:28:09.885Z,0
2016-06-18T02:29:11.139Z,0
2016-06-18T02:30:09.955Z,0
2016-06-18T02:31:09.364Z,0
2016-06-18T02:32:09.400Z,0
2016-06-18T02:33:09.449Z,0
2016-06-18T02:34:08.874Z,0
2016-06-18T02:35:10.738Z,0
2016-06-18T02:36:10.164Z,0
2016-06-18T02:37:10.775Z,0
2016-06-18T02:38:10.232Z,0
2016-06-18T02:39:10.283Z,0
2016-06-18T02:40:10.912Z,0
2016-06-18T02:41:10.351Z,0
2016-06-18T02:42:10.996Z,0
2016-06-18T02:43:11.046Z,0
2016-06-18T02:44:09.847Z,0
2016-06-18T02:45:09.866Z,0
2016-06-18T02:46:09.915Z,0
2016-06-18T02:47:11.154Z,0
2016-06-18T02:48:10.611Z,0
2016-06-18T02:49:11.240Z,0
2016-06-18T02:50:11.289Z,0
2016-06-18T02:51:11.340Z,0
2016-06-18T02:52:10.750Z,0
2016-06-18T02:53:11.393Z,0
2016-06-18T02:54:09.584Z,0
2016-06-18T02:55:10.260Z,0
2016-06-18T02:56:10.263Z,0
2016-06-18T02:57:10.907Z,0
2016-06-18T02:58:12.161Z,0
2016-06-18T02:59:12.211Z,0
2016-06-18T03:00:11.652Z,0
2016-06-18T03:01:10.453Z,0
2016-06-18T03:02:11.706Z,0
2016-06-18T03:03:11.132Z,0
2016-06-18T03:04:11.791Z,0
2016-06-18T03:05:11.825Z,0
2016-06-18T03:06:11.860Z,0
2016-06-18T03:07:11.896Z,0
2016-06-18T03:08:11.305Z,0
2016-06-18T03:09:10.745Z,0
2016-06-18T03:10:10.187Z,0
2016-06-18T03:11:11.409Z,0
2016-06-18T03:12:12.678Z,0
2016-06-18T03:13:11.541Z,0
2016-06-18T03:14:10.919Z,0
2016-06-18T03:15:12.173Z,0
2016-06-18T03:16:11.598Z,0
2016-06-18T03:17:11.023Z,0
2016-06-18T03:18:12.293Z,0
2016-06-18T03:19:11.718Z,0
2016-06-18T03:20:12.955Z,0
2016-06-18T03:21:11.178Z,0
2016-06-18T03:22:11.854Z,0
2016-06-18T03:23:11.871Z,0
2016-06-18T03:24:11.297Z,5
2016-06-18T03:25:12.536Z,5
2016-06-18T03:26:12.570Z,5
2016-06-18T03:27:11.385Z,5
2016-06-18T03:28:12.639Z,5
2016-06-18T03:29:12.689Z,5
2016-06-18T03:30:12.115Z,5
2016-06-18T03:31:12.119Z,5
2016-06-18T03:32:12.777Z,5
2016-06-18T03:33:12.219Z,5
2016-06-18T03:34:12.864Z,5
2016-06-18T03:35:12.289Z,5
2016-06-18T03:36:12.932Z,5
2016-06-18T03:37:12.967Z,5
2016-06-18T03:38:11.174Z,5
2016-06-18T03:39:13.068Z,0
2016-06-18T03:40:13.681Z,5
2016-06-18T03:41:12.528Z,0
2016-06-18T03:42:11.922Z,0
2016-06-18T03:43:12.582Z,0
2016-06-18T03:44:12.024Z,0
2016-06-18T03:45:12.652Z,0
2016-06-18T03:46:12.701Z,0
2016-06-18T03:47:12.721Z,0
2016-06-18T03:48:12.771Z,5
2016-06-18T03:49:14.025Z,5
2016-06-18T03:50:12.231Z,5
2016-06-18T03:51:14.204Z,5
2016-06-18T03:52:13.551Z,5
2016-06-18T03:53:12.351Z,5
2016-06-18T03:54:13.589Z,5
2016-06-18T03:55:12.420Z,10
2016-06-18T03:56:13.049Z,10
2016-06-18T03:57:12.474Z,10
2016-06-18T03:58:12.525Z,10
2016-06-18T03:59:13.215Z,10
2016-06-18T04:00:13.813Z,15
2016-06-18T04:01:13.253Z,15
2016-06-18T04:02:12.664Z,20
2016-06-18T04:03:13.901Z,20
2016-06-18T04:04:14.561Z,20
2016-06-18T04:05:13.392Z,20
2016-06-18T04:06:14.614Z,25
2016-06-18T04:07:12.243Z,30
2016-06-18T04:08:14.107Z,30
2016-06-18T04:09:14.125Z,35
2016-06-18T04:10:13.552Z,35
2016-06-18T04:11:14.812Z,35
2016-06-18T04:12:13.635Z,35
2016-06-18T04:13:14.285Z,40
2016-06-18T04:14:14.340Z,40
2016-06-18T04:15:13.771Z,45
2016-06-18T04:16:13.808Z,45
2016-06-18T04:17:13.845Z,40
2016-06-18T04:18:13.882Z,40
2016-06-18T04:19:14.560Z,40
2016-06-18T04:20:13.361Z,45
2016-06-18T04:21:14.616Z,45
2016-06-18T04:22:13.416Z,45
2016-06-18T04:23:15.297Z,45
2016-06-18T04:24:14.113Z,40
2016-06-18T04:25:14.757Z,35
2016-06-18T04:26:14.183Z,35
2016-06-18T04:27:14.813Z,35
2016-06-18T04:28:14.269Z,30
2016-06-18T04:29:13.695Z,25
2016-06-18T04:30:14.934Z,20
2016-06-18T04:31:14.374Z,20
2016-06-18T04:32:14.393Z,20
2016-06-18T04:33:13.834Z,20
2016-06-18T04:34:13.869Z,20
2016-06-18T04:35:15.107Z,15
2016-06-18T04:36:15.142Z,10
2016-06-18T04:37:13.941Z,10
2016-06-18T04:38:15.226Z,5
2016-06-18T04:39:15.277Z,5
2016-06-18T04:40:14.077Z,5
2016-06-18T04:41:14.721Z,5
2016-06-18T04:42:14.772Z,5
2016-06-18T04:43:14.181Z,5
2016-06-18T04:44:14.841Z,5
2016-06-18T04:45:15.486Z,10
2016-06-18T04:46:15.504Z,10
2016-06-18T04:47:14.335Z,10
2016-06-18T04:48:14.980Z,15
2016-06-18T04:49:16.233Z,15
2016-06-18T04:50:15.065Z,15
2016-06-18T04:51:14.474Z,15
2016-06-18T04:52:15.135Z,20
2016-06-18T04:53:15.763Z,25
2016-06-18T04:54:16.406Z,25
2016-06-18T04:55:15.238Z,20
2016-06-18T04:56:14.679Z,25
2016-06-18T04:57:15.902Z,25
2016-06-18T04:58:15.358Z,30
2016-06-18T04:59:14.768Z,30
2016-06-18T05:00:16.021Z,25
2016-06-18T05:01:14.227Z,30
2016-06-18T05:02:15.497Z,30
2016-06-18T05:03:15.548Z,35
2016-06-18T05:04:15.582Z,30
2016-06-18T05:05:15.602Z,30
2016-06-18T05:06:15.651Z,30
2016-06-18T05:07:16.264Z,35
2016-06-18T05:08:15.096Z,40
2016-06-18T05:09:14.522Z,45
2016-06-18T05:10:16.352Z,45
2016-06-18T05:11:15.793Z,40
2016-06-18T05:12:15.860Z,35
2016-06-18T05:13:15.911Z,35
2016-06-18T05:14:15.913Z,40
2016-06-18T05:15:15.964Z,35
2016-06-18T05:16:15.998Z,35
2016-06-18T05:17:15.424Z,30
2016-06-18T05:18:16.053Z,30
2016-06-18T05:19:16.102Z,30
2016-06-18T05:20:15.512Z,25
2016-06-18T05:21:16.172Z,25
2016-06-18T05:22:16.222Z,25
2016-06-18T05:23:16.257Z,25
2016-06-18T05:24:16.918Z,25
2016-06-18T05:25:17.529Z,25
2016-06-18T05:26:16.361Z,20
2016-06-18T05:27:16.396Z,25
2016-06-18T05:28:15.821Z,30
2016-06-18T05:29:16.465Z,35
2016-06-18T05:30:17.156Z,40
2016-06-18T05:31:16.566Z,45
2016-06-18T05:32:15.976Z,40
2016-06-18T05:33:16.667Z,40
2016-06-18T05:34:16.654Z,40
2016-06-18T05:35:16.080Z,35
2016-06-18T05:36:16.130Z,30
2016-06-18T05:37:16.758Z,40
2016-06-18T05:38:16.808Z,40
2016-06-18T05:39:16.859Z,40
2016-06-18T05:40:18.098Z,40
2016-06-18T05:41:16.897Z,50
2016-06-18T05:42:18.167Z,55
2016-06-18T05:43:16.983Z,50
2016-06-18T05:44:16.423Z,40
2016-06-18T05:45:18.255Z,35
2016-06-18T05:46:17.727Z,25
2016-06-18T05:47:17.731Z,25
2016-06-18T05:48:17.765Z,25
2016-06-18T05:49:17.816Z,30
2016-06-18T05:50:16.038Z,30
2016-06-18T05:51:17.292Z,35
2016-06-18T05:52:17.310Z,40
2016-06-18T05:53:16.751Z,35
2016-06-18T05:54:17.396Z,35
2016-06-18T05:55:16.820Z,35
2016-06-18T05:56:18.684Z,45
2016-06-18T05:57:18.703Z,55
2016-06-18T05:58:18.144Z,60
2016-06-18T05:59:16.959Z,65
2016-06-18T06:00:17.620Z,70
2016-06-18T06:01:17.638Z,75
2016-06-18T06:02:17.064Z,75
2016-06-18T06:03:18.317Z,80
2016-06-18T06:04:17.758Z,80
2016-06-18T06:05:17.793Z,80
2016-06-18T06:06:18.453Z,80
2016-06-18T06:07:17.269Z,80
2016-06-18T06:08:17.287Z,75
2016-06-18T06:09:17.323Z,75
2016-06-18T06:10:17.966Z,80
2016-06-18T06:11:17.408Z,85
2016-06-18T06:12:16.848Z,85
2016-06-18T06:13:18.070Z,85
2016-06-18T06:14:16.902Z,85
2016-06-18T06:15:16.936Z,85
2016-06-18T06:16:18.206Z,90
2016-06-18T06:17:18.835Z,95
2016-06-18T06:18:18.275Z,95
2016-06-18T06:19:18.294Z,100
2016-06-18T06:20:18.939Z,100
2016-06-18T06:21:18.364Z,100
2016-06-18T06:22:19.617Z,100
2016-06-18T06:23:19.042Z,95
2016-06-18T06:24:18.483Z,95
2016-06-18T06:25:19.113Z,95
2016-06-18T06:26:17.944Z,95
2016-06-18T06:27:18.604Z,100
2016-06-18T06:28:19.844Z,105
2016-06-18T06:29:19.284Z,120
2016-06-18T06:30:18.711Z,130
2016-06-18T06:31:18.762Z,140
2016-06-18T06:32:18.766Z,150
2016-06-18T06:33:17.614Z,155
2016-06-18T06:34:18.242Z,155
2016-06-18T06:35:18.293Z,150
2016-06-18T06:36:18.922Z,145
2016-06-18T06:37:19.581Z,135
2016-06-18T06:38:18.412Z,130
2016-06-18T06:39:19.041Z,140
2016-06-18T06:40:19.092Z,150
2016-06-18T06:41:18.518Z,155
2016-06-18T06:42:19.160Z,160
2016-06-18T06:43:20.039Z,165
2016-06-18T06:44:20.433Z,165
2016-06-18T06:45:18.656Z,170
2016-06-18T06:46:19.300Z,165
2016-06-18T06:47:19.944Z,155
2016-06-18T06:48:19.384Z,150
2016-06-18T06:49:19.388Z,145
2016-06-18T06:50:19.455Z,145
2016-06-18T06:51:19.505Z,140
2016-06-18T06:52:19.509Z,145
2016-06-18T06:53:19.558Z,150
2016-06-18T06:54:19.609Z,150
2016-06-18T06:55:20.253Z,160
2016-06-18T06:56:20.897Z,175
2016-06-18T06:57:19.713Z,190
2016-06-18T06:58:19.763Z,210
2016-06-18T06:59:19.172Z,230
2016-06-18T07:00:19.833Z,245
2016-06-18T07:01:19.868Z,250
2016-06-18T07:02:19.293Z,250
2016-06-18T07:03:19.937Z,250
2016-06-18T07:04:21.189Z,265
2016-06-18T07:05:19.397Z,290
2016-06-18T07:06:19.447Z,310
2016-06-18T07:07:20.091Z,310
2016-06-18T07:08:19.517Z,305
2016-06-18T07:09:20.770Z,310
2016-06-18T07:10:20.195Z,315
2016-06-18T07:11:21.464Z,305
2016-06-18T07:12:19.703Z,300
2016-06-18T07:13:20.331Z,325
2016-06-18T07:14:20.350Z,355
2016-06-18T07:15:19.774Z,375
2016-06-18T07:16:20.435Z,405
2016-06-18T07:17:19.859Z,420
2016-06-18T07:18:20.520Z,435
2016-06-18T07:19:20.555Z,410
2016-06-18T07:20:20.575Z,375
2016-06-18T07:21:20.623Z,360
2016-06-18T07:22:20.065Z,365
2016-06-18T07:23:21.318Z,390
2016-06-18T07:24:21.947Z,415
2016-06-18T07:25:20.794Z,450
2016-06-18T07:26:21.423Z,500
2016-06-18T07:27:21.458Z,520
2016-06-18T07:28:21.507Z,540
2016-06-18T07:29:20.933Z,580
2016-06-18T07:30:19.779Z,625
2016-06-18T07:31:21.002Z,680
2016-06-18T07:32:22.287Z,680
2016-06-18T07:33:19.884Z,685
2016-06-18T07:34:21.732Z,675
2016-06-18T07:35:20.547Z,650
2016-06-18T07:36:20.614Z,615
2016-06-18T07:37:20.633Z,610
2016-06-18T07:38:21.276Z,575
2016-06-18T07:39:21.327Z,560
2016-06-18T07:40:21.377Z,600
2016-06-18T07:41:20.193Z,610
2016-06-18T07:42:20.821Z,565
2016-06-18T07:43:22.106Z,520
2016-06-18T07:44:21.516Z,465
2016-06-18T07:45:22.160Z,410
2016-06-18T07:46:20.976Z,370
2016-06-18T07:47:21.043Z,355
2016-06-18T07:48:21.764Z,335
2016-06-18T07:49:21.720Z,265
2016-06-18T07:50:23.006Z,230
2016-06-18T07:51:21.822Z,210
2016-06-18T07:52:21.855Z,195
2016-06-18T07:53:21.906Z,185
2016-06-18T07:54:21.331Z,165
2016-06-18T07:55:21.366Z,135
2016-06-18T07:56:22.635Z,120
2016-06-18T07:57:21.467Z,125
2016-06-18T07:58:21.518Z,135
2016-06-18T07:59:22.146Z,140
2016-06-18T08:00:22.774Z,155
2016-06-18T08:01:22.825Z,170
2016-06-18T08:02:22.234Z,175
2016-06-18T08:03:21.676Z,175
2016-06-18T08:04:21.726Z,185
2016-06-18T08:05:21.761Z,205
2016-06-18T08:06:22.420Z,200
2016-06-18T08:07:23.048Z,205
2016-06-18T08:08:23.083Z,220
2016-06-18T08:09:23.133Z,240
2016-06-18T08:10:21.950Z,245
2016-06-18T08:11:23.203Z,235
2016-06-18T08:12:22.035Z,200
2016-06-18T08:13:22.695Z,185
2016-06-18T08:14:22.103Z,190
2016-06-18T08:15:22.765Z,195
2016-06-18T08:16:22.813Z,170
2016-06-18T08:17:23.442Z,160
2016-06-18T08:18:21.664Z,155
2016-06-18T08:19:24.185Z,165
2016-06-18T08:20:21.750Z,160
2016-06-18T08:21:22.394Z,155
2016-06-18T08:22:22.397Z,155
2016-06-18T08:23:23.073Z,175
2016-06-18T08:24:22.498Z,195
2016-06-18T08:25:22.549Z,205
2016-06-18T08:26:23.209Z,210
2016-06-18T08:27:23.821Z,215
2016-06-18T08:28:23.262Z,220
2016-06-18T08:29:23.296Z,260
2016-06-18T08:30:23.347Z,265
2016-06-18T08:31:23.382Z,260
2016-06-18T08:32:22.807Z,315
2016-06-18T08:33:23.467Z,345
2016-06-18T08:34:23.501Z,370
2016-06-18T08:35:22.926Z,400
2016-06-18T08:36:23.571Z,415
2016-06-18T08:37:23.011Z,445
2016-06-18T08:38:24.859Z,495
2016-06-18T08:39:24.909Z,590
2016-06-18T08:40:23.116Z,645
2016-06-18T08:41:24.354Z,730
2016-06-18T08:42:24.403Z,1230
2016-06-18T08:43:23.863Z,865
2016-06-18T08:47:13.828Z,435
2016-06-18T08:47:25.047Z,435
2016-06-18T08:47:31.609Z,500
2016-06-18T08:47:41.609Z,495
2016-06-18T08:48:43.491Z,475
2016-06-18T08:49:41.700Z,475
2016-06-18T08:50:42.955Z,475
2016-06-18T08:51:41.773Z,455
2016-06-18T08:52:42.434Z,425
2016-06-18T08:53:42.470Z,410
2016-06-18T08:54:41.927Z,405
2016-06-18T08:55:43.166Z,420
2016-06-18T08:56:42.606Z,445
2016-06-18T08:57:42.017Z,535
2016-06-18T08:58:43.286Z,540
2016-06-18T08:59:43.337Z,1390
2016-06-18T09:00:42.746Z,1055
2016-06-18T09:01:42.189Z,1785
2016-06-18T09:02:44.052Z,840
2016-06-18T09:03:43.492Z,1680
2016-06-18T09:04:42.918Z,745
2016-06-18T09:05:42.359Z,995
2016-06-18T09:06:42.987Z,635
2016-06-18T09:07:43.084Z,510
2016-06-18T09:08:43.150Z,455
2016-06-18T09:09:43.748Z,400
2016-06-18T09:10:43.189Z,350
2016-06-18T09:11:43.254Z,305
2016-06-18T09:12:43.274Z,285
2016-06-18T09:13:43.918Z,280
2016-06-18T09:14:43.953Z,245
2016-06-18T09:15:43.378Z,230
2016-06-18T09:16:43.444Z,260
2016-06-18T09:17:44.104Z,265
2016-06-18T09:20:17.285Z,260
2016-06-18T09:21:18.600Z,270
2016-06-18T09:22:18.603Z,290
2016-06-18T09:23:19.857Z,315
2016-06-18T09:24:18.705Z,310
2016-06-18T09:25:19.302Z,315
2016-06-18T09:26:18.805Z,335
2016-06-18T09:27:19.402Z,350
2016-06-18T09:28:19.516Z,335
2016-06-18T09:29:20.128Z,300
2016-06-18T09:30:18.350Z,275
2016-06-18T09:31:20.276Z,235
2016-06-18T09:32:18.952Z,215
2016-06-18T09:33:18.955Z,215
2016-06-18T09:34:19.614Z,220
2016-06-18T09:35:19.649Z,230
2016-06-18T09:36:20.309Z,240
2016-06-18T09:37:19.733Z,245
2016-06-18T09:38:19.159Z,235
2016-06-18T09:39:19.820Z,230
2016-06-18T09:40:18.963Z,240
2016-06-18T09:41:19.889Z,235
2016-06-18T09:42:19.330Z,235
2016-06-18T09:43:20.615Z,250
2016-06-18T09:44:20.039Z,275
2016-06-18T09:45:19.449Z,295
2016-06-18T09:46:20.703Z,295
2016-06-18T09:47:19.003Z,305
2016-06-18T09:48:19.584Z,320
2016-06-18T09:49:19.604Z,305
2016-06-18T09:50:19.638Z,290
2016-06-18T09:51:20.282Z,275
2016-06-18T09:52:20.365Z,270
2016-06-18T09:53:19.758Z,310
2016-06-18T09:54:19.792Z,305
2016-06-18T09:55:19.828Z,265
2016-06-18T09:56:19.253Z,280
2016-06-18T09:57:19.303Z,320
2016-06-18T09:58:19.963Z,365
2016-06-18T09:59:20.591Z,365
2016-06-18T10:00:21.251Z,360
2016-06-18T10:01:20.738Z,335
2016-06-18T10:02:20.711Z,330
2016-06-18T10:03:20.761Z,320
2016-06-18T10:04:21.406Z,310
2016-06-18T10:05:20.830Z,310
2016-06-18T10:06:20.272Z,300
2016-06-18T10:07:19.697Z,295
2016-06-18T10:08:19.732Z,290
2016-06-18T10:09:19.767Z,280
2016-06-18T10:10:20.427Z,275
2016-06-18T10:11:20.461Z,270
2016-06-18T10:12:20.512Z,245
2016-06-18T10:13:20.749Z,220
2016-06-18T10:14:21.236Z,205
2016-06-18T10:15:20.630Z,190
2016-06-18T10:16:21.275Z,175
2016-06-18T10:17:21.919Z,160
2016-06-18T10:18:21.360Z,145
2016-06-18T10:19:22.020Z,140
2016-06-18T10:20:20.821Z,130
2016-06-18T10:21:21.011Z,115
2016-06-18T10:22:22.124Z,105
2016-06-18T10:23:21.550Z,95
2016-06-18T10:24:21.568Z,90
2016-06-18T10:25:21.650Z,75
2016-06-18T10:26:22.278Z,65
2016-06-18T10:27:21.688Z,55
2016-06-18T10:28:21.128Z,50
2016-06-18T10:29:21.773Z,55
2016-06-18T10:30:21.807Z,65
2016-06-18T10:31:21.264Z,75
2016-06-18T10:32:21.283Z,80
2016-06-18T10:33:20.709Z,85
2016-06-18T10:34:21.962Z,95
2016-06-18T10:35:20.778Z,95
2016-06-18T10:36:22.047Z,95
2016-06-18T10:37:21.488Z,95
2016-06-18T10:38:20.913Z,105
2016-06-18T10:39:20.933Z,110
2016-06-18T10:40:21.608Z,115
2016-06-18T10:41:22.236Z,120
2016-06-18T10:42:21.052Z,125
2016-06-18T10:43:22.915Z,135
2016-06-18T10:44:22.340Z,140
2016-06-18T10:45:21.173Z,150
2016-06-18T10:46:22.426Z,160
2016-06-18T10:47:22.460Z,170
2016-06-18T10:48:21.291Z,185
2016-06-18T10:49:22.545Z,200
2016-06-18T10:50:22.565Z,205
2016-06-18T10:51:21.990Z,220
2016-06-18T10:52:22.041Z,235
2016-06-18T10:53:21.465Z,240
2016-06-18T10:54:21.548Z,245
2016-06-18T10:55:22.769Z,250
2016-06-18T10:56:22.819Z,290
2016-06-18T10:57:21.636Z,320
2016-06-18T10:58:22.279Z,350
2016-06-18T10:59:23.518Z,325
2016-06-18T11:00:22.990Z,280
2016-06-18T11:01:22.400Z,315
2016-06-18T11:02:22.450Z,465
2016-06-18T11:03:23.079Z,360
2016-06-18T11:04:23.144Z,430
2016-06-18T11:05:22.539Z,505
2016-06-18T11:06:21.964Z,490
2016-06-18T11:07:23.233Z,505
2016-06-18T11:08:22.642Z,505
2016-06-18T11:09:23.303Z,525
2016-06-18T11:10:22.728Z,730
2016-06-18T11:11:23.996Z,940
2016-06-18T11:12:24.016Z,790
2016-06-18T11:13:24.066Z,810
2016-06-18T11:14:22.897Z,810
2016-06-18T11:15:23.541Z,555
2016-06-18T11:16:23.576Z,420
2016-06-18T11:17:23.611Z,440
2016-06-18T11:18:22.459Z,405
2016-06-18T11:19:22.477Z,375
2016-06-18T11:20:23.746Z,335
2016-06-18T11:21:22.578Z,340
2016-06-18T11:22:23.816Z,350
2016-06-18T11:23:23.256Z,350
2016-06-18T11:24:23.902Z,385
2016-06-18T11:25:23.355Z,480
2016-06-18T11:26:22.781Z,575
2016-06-18T11:27:22.784Z,650
2016-06-18T11:28:22.850Z,695
2016-06-18T11:29:22.307Z,600
2016-06-18T11:30:23.529Z,920
2016-06-18T11:31:24.783Z,585
2016-06-18T11:32:24.224Z,545
2016-06-18T11:33:24.258Z,565
2016-06-18T11:34:23.699Z,615
2016-06-18T11:41:26.120Z,470
2016-06-18T11:42:25.560Z,360
2016-06-18T11:43:25.596Z,330
2016-06-18T11:44:25.053Z,350
2016-06-18T11:45:26.915Z,365
2016-06-18T11:46:25.137Z,375
2016-06-18T11:47:25.204Z,395
2016-06-18T11:48:25.816Z,420
2016-06-18T11:49:42.617Z,480
2016-06-18T11:50:27.120Z,520
2016-06-18T11:51:25.936Z,660
2016-06-18T11:52:26.581Z,975
2016-06-18T11:53:26.006Z,760
2016-06-18T11:54:25.432Z,595
2016-06-18T11:55:26.091Z,500
2016-06-18T11:56:26.157Z,455
2016-06-18T11:57:26.801Z,430
2016-06-18T11:58:27.446Z,405
2016-06-18T11:59:26.857Z,385
2016-06-18T12:00:26.892Z,370
2016-06-18T12:01:26.960Z,375
2016-06-18T12:02:26.385Z,375
2016-06-18T12:03:27.030Z,375
2016-06-18T12:04:27.066Z,375
2016-06-18T12:05:26.507Z,380
2016-06-18T12:06:27.167Z,365
2016-06-18T12:07:27.812Z,365
2016-06-18T12:08:27.253Z,360
2016-06-18T12:09:27.272Z,340
2016-06-18T12:10:26.120Z,325
2016-06-18T12:11:26.748Z,315
2016-06-18T12:12:26.845Z,320
2016-06-18T12:13:26.223Z,310
2016-06-18T12:14:27.476Z,300
2016-06-18T12:15:26.324Z,300
2016-06-18T12:16:26.359Z,295
2016-06-18T12:17:28.206Z,295
2016-06-18T12:18:27.039Z,300
2016-06-18T12:19:27.683Z,300
2016-06-18T12:20:27.124Z,285
2016-06-18T12:21:27.753Z,275
2016-06-18T12:22:27.819Z,270
2016-06-18T12:23:27.853Z,275
2016-06-18T12:24:26.670Z,275
2016-06-18T12:25:26.705Z,275
2016-06-18T12:26:26.755Z,275
2016-06-18T12:27:27.398Z,285
2016-06-18T12:28:27.449Z,300
2016-06-18T12:29:28.078Z,335
2016-06-18T12:30:27.566Z,360
2016-06-18T12:31:26.944Z,375
2016-06-18T12:32:28.243Z,420
2016-06-18T12:33:28.872Z,755
2016-06-18T12:34:28.875Z,2030
2016-06-18T12:35:28.942Z,2150
2016-06-18T12:36:28.368Z,2050
2016-06-18T12:37:27.183Z,1305
2016-06-18T12:38:27.844Z,1700
2016-06-18T12:39:28.487Z,2055
2016-06-18T12:40:27.319Z,2040
2016-06-18T12:41:28.588Z,2080
2016-06-18T12:42:28.607Z,2200
2016-06-18T12:43:28.048Z,2165
2016-06-18T12:44:28.708Z,2175
2016-06-18T12:45:28.164Z,2120
2016-06-18T12:46:28.808Z,2065
2016-06-18T12:47:28.906Z,2005
2016-06-18T12:48:28.893Z,2030
2016-06-18T12:49:28.319Z,1970
2016-06-18T12:50:28.400Z,1900
2016-06-18T12:51:27.826Z,1970
2016-06-18T12:52:28.471Z,2000
2016-06-18T12:53:29.147Z,2010
2016-06-18T12:54:29.181Z,1885
2016-06-18T12:55:29.216Z,1605
2016-06-18T12:56:29.283Z,1580
2016-06-18T12:57:28.724Z,1890
2016-06-18T12:58:28.180Z,1825
2016-06-18T12:59:28.824Z,1880
2016-06-18T13:00:28.875Z,1000
2016-06-18T13:01:29.534Z,1875
2016-06-18T13:02:29.007Z,1825
2016-06-18T13:03:29.025Z,1880
2016-06-18T13:04:29.075Z,1905
2016-06-18T13:05:28.517Z,2055
2016-06-18T13:06:28.551Z,1890
2016-06-18T13:07:30.446Z,1960
2016-06-18T13:08:29.886Z,1915
2016-06-18T13:09:29.937Z,1805
2016-06-18T13:10:28.768Z,1780
2016-06-18T13:11:30.038Z,780
2016-06-18T13:12:28.884Z,1260
2016-06-18T13:13:28.920Z,1735
2016-06-18T13:14:28.985Z,1700
2016-06-18T13:15:29.629Z,1770
2016-06-18T13:16:30.289Z,875
2016-06-18T13:17:30.964Z,570
2016-06-18T13:18:31.014Z,460
2016-06-18T13:19:31.065Z,285
2016-06-18T13:20:30.506Z,265
2016-06-18T13:21:29.337Z,395
2016-06-18T13:22:30.013Z,325
2016-06-18T13:23:30.033Z,270
2016-06-18T13:24:30.709Z,210
2016-06-18T13:25:28.932Z,210
2016-06-18T13:26:30.796Z,230
2016-06-18T13:27:30.254Z,555
2016-06-18T13:28:30.305Z,590
2016-06-18T13:29:30.371Z,940
2016-06-18T13:30:31.000Z,475
2016-06-18T13:31:31.036Z,500
2016-06-18T13:32:29.883Z,375
2016-06-18T13:33:31.136Z,325
2016-06-18T13:34:29.969Z,295
2016-06-18T13:35:30.630Z,280
2016-06-18T13:36:31.273Z,265
2016-06-18T13:37:30.730Z,270
2016-06-18T13:38:30.749Z,265
2016-06-18T13:39:31.441Z,255
2016-06-18T13:40:31.459Z,245
2016-06-18T13:41:31.494Z,255
2016-06-18T13:42:30.935Z,270
2016-06-18T13:43:31.595Z,305
2016-06-18T13:44:31.646Z,330
2016-06-18T13:45:31.087Z,345
2016-06-18T13:46:32.325Z,345
2016-06-18T13:47:31.156Z,340
2016-06-18T13:48:30.612Z,330
2016-06-18T13:49:30.022Z,325
2016-06-18T13:50:31.916Z,325
2016-06-18T13:51:31.326Z,330
2016-06-18T13:52:31.970Z,365
2016-06-18T13:53:30.193Z,430
2016-06-18T13:54:31.477Z,410
2016-06-18T13:55:31.511Z,390
2016-06-18T13:56:31.546Z,380
2016-06-18T13:57:31.596Z,355
2016-06-18T13:58:32.239Z,335
2016-06-18T13:59:31.086Z,320
2016-06-18T14:00:32.322Z,315
2016-06-18T14:01:32.965Z,320
2016-06-18T14:02:31.795Z,310
2016-06-18T14:03:31.221Z,305
2016-06-18T14:04:31.271Z,290
2016-06-18T14:05:31.914Z,280
2016-06-18T14:06:31.386Z,265
2016-06-18T14:07:32.593Z,250
2016-06-18T14:08:32.658Z,235
2016-06-18T14:09:32.099Z,225
2016-06-18T14:10:32.119Z,220
2016-06-18T14:11:32.153Z,220
2016-06-18T14:12:32.204Z,220
2016-06-18T14:13:31.644Z,225
2016-06-18T14:14:32.288Z,235